sensor_id;sensor_type;location;lat;lon;timestamp;pressure;altitude;pressure_sealevel;temperature;humidity
48216;BME280;34005;48.844;10.098;2023-07-24T01:24:48;96021.28;;;20.08;59.05
48216;BME280;34005;48.844;10.098;2023-07-24T01:34:21;96020.19;;;20.04;59.40
48216;BME280;34005;48.844;10.098;2023-07-24T01:39:39;96014.81;;;19.93;58.86
48216;BME280;34005;48.844;10.098;2023-07-24T01:48:46;95983.91;;;19.67;59.68
48216;BME280;34005;48.844;10.098;2023-07-24T01:54:32;95983.50;;;19.48;58.62
48216;BME280;34005;48.844;10.098;2023-07-24T02:02:49;96007.47;;;19.31;60.08
48216;BME280;34005;48.844;10.098;2023-07-24T03:54:38;95901.47;;;19.00;55.68
48216;BME280;34005;48.844;10.098;2023-07-24T03:57:38;95918.59;;;18.98;55.89
48216;BME280;34005;48.844;10.098;2023-07-24T04:00:42;95918.06;;;18.96;55.77
48216;BME280;34005;48.844;10.098;2023-07-24T04:03:30;95916.97;;;18.91;55.68
48216;BME280;34005;48.844;10.098;2023-07-24T04:06:33;95929.09;;;18.87;55.69
48216;BME280;34005;48.844;10.098;2023-07-24T04:09:24;95942.78;;;18.84;55.99
48216;BME280;34005;48.844;10.098;2023-07-24T04:12:26;95937.94;;;18.76;56.05
48216;BME280;34005;48.844;10.098;2023-07-24T04:18:03;95927.31;;;18.71;56.23
48216;BME280;34005;48.844;10.098;2023-07-24T04:20:31;95927.03;;;18.67;56.34
48216;BME280;34005;48.844;10.098;2023-07-24T04:22:59;95909.81;;;18.65;56.60
48216;BME280;34005;48.844;10.098;2023-07-24T04:25:28;95913.22;;;18.60;56.63
48216;BME280;34005;48.844;10.098;2023-07-24T04:27:56;95901.31;;;18.58;56.57
48216;BME280;34005;48.844;10.098;2023-07-24T04:30:24;95906.09;;;18.61;56.68
48216;BME280;34005;48.844;10.098;2023-07-24T04:32:52;95900.31;;;18.64;56.64
48216;BME280;34005;48.844;10.098;2023-07-24T04:35:20;95890.84;;;18.68;56.60
48216;BME280;34005;48.844;10.098;2023-07-24T04:37:49;95889.03;;;18.73;56.46
48216;BME280;34005;48.844;10.098;2023-07-24T04:40:18;95876.69;;;18.79;56.13
48216;BME280;34005;48.844;10.098;2023-07-24T04:42:49;95865.63;;;18.82;56.23
48216;BME280;34005;48.844;10.098;2023-07-24T04:48:07;95863.63;;;18.94;55.73
48216;BME280;34005;48.844;10.098;2023-07-24T04:50:34;95857.31;;;19.01;55.58
48216;BME280;34005;48.844;10.098;2023-07-24T04:53:02;95843.09;;;19.07;55.34
48216;BME280;34005;48.844;10.098;2023-07-24T04:55:30;95836.53;;;19.14;55.07
48216;BME280;34005;48.844;10.098;2023-07-24T04:57:59;95840.00;;;19.20;54.66
48216;BME280;34005;48.844;10.098;2023-07-24T05:00:26;95840.03;;;19.25;54.52
48216;BME280;34005;48.844;10.098;2023-07-24T05:02:54;95826.03;;;19.30;53.89
48216;BME280;34005;48.844;10.098;2023-07-24T05:05:21;95827.38;;;19.32;53.79
48216;BME280;34005;48.844;10.098;2023-07-24T05:07:49;95829.53;;;19.35;53.63
48216;BME280;34005;48.844;10.098;2023-07-24T05:10:18;95828.75;;;19.40;53.56
48216;BME280;34005;48.844;10.098;2023-07-24T05:12:47;95826.91;;;19.46;53.59
48216;BME280;34005;48.844;10.098;2023-07-24T05:15:20;95842.28;;;19.49;53.67
48216;BME280;34005;48.844;10.098;2023-07-24T05:17:51;95833.28;;;19.50;53.77
48216;BME280;34005;48.844;10.098;2023-07-24T05:20:20;95826.97;;;19.51;53.64
48216;BME280;34005;48.844;10.098;2023-07-24T05:22:49;95835.44;;;19.53;53.82
48216;BME280;34005;48.844;10.098;2023-07-24T05:25:19;95836.53;;;19.57;54.10
48216;BME280;34005;48.844;10.098;2023-07-24T05:27:47;95843.41;;;19.63;53.97
48216;BME280;34005;48.844;10.098;2023-07-24T05:30:16;95848.19;;;19.66;54.36
48216;BME280;34005;48.844;10.098;2023-07-24T05:32:48;95851.38;;;19.68;54.91
48216;BME280;34005;48.844;10.098;2023-07-24T05:35:18;95847.13;;;19.67;55.00
48216;BME280;34005;48.844;10.098;2023-07-24T05:37:47;95843.69;;;19.67;55.30
48216;BME280;34005;48.844;10.098;2023-07-24T05:40:16;95839.19;;;19.67;55.51
48216;BME280;34005;48.844;10.098;2023-07-24T05:42:46;95830.22;;;19.68;55.83
48216;BME280;34005;48.844;10.098;2023-07-24T05:45:16;95836.53;;;19.67;55.83
48216;BME280;34005;48.844;10.098;2023-07-24T05:47:48;95832.31;;;19.66;56.39
48216;BME280;34005;48.844;10.098;2023-07-24T05:50:17;95846.09;;;19.68;56.60
48216;BME280;34005;48.844;10.098;2023-07-24T05:52:47;95841.91;;;19.72;56.87
48216;BME280;34005;48.844;10.098;2023-07-24T05:55:16;95833.69;;;19.74;57.19
48216;BME280;34005;48.844;10.098;2023-07-24T05:57:45;95839.81;;;19.80;57.44
48216;BME280;34005;48.844;10.098;2023-07-24T06:00:14;95841.44;;;19.86;57.66
48216;BME280;34005;48.844;10.098;2023-07-24T06:02:43;95846.47;;;19.92;57.95
48216;BME280;34005;48.844;10.098;2023-07-24T06:05:14;95831.16;;;20.00;58.13
48216;BME280;34005;48.844;10.098;2023-07-24T06:07:43;95838.31;;;20.09;57.76
48216;BME280;34005;48.844;10.098;2023-07-24T06:10:12;95849.19;;;20.18;58.00
48216;BME280;34005;48.844;10.098;2023-07-24T06:12:41;95852.66;;;20.29;57.89
48216;BME280;34005;48.844;10.098;2023-07-24T06:15:10;95860.38;;;20.41;57.95
48216;BME280;34005;48.844;10.098;2023-07-24T06:17:38;95863.84;;;20.51;57.67
48216;BME280;34005;48.844;10.098;2023-07-24T06:20:07;95865.47;;;20.63;57.46
48216;BME280;34005;48.844;10.098;2023-07-24T06:22:37;95876.09;;;20.73;57.04
48216;BME280;34005;48.844;10.098;2023-07-24T06:25:06;95875.28;;;20.83;56.83
48216;BME280;34005;48.844;10.098;2023-07-24T06:27:34;95881.66;;;20.92;57.15
48216;BME280;34005;48.844;10.098;2023-07-24T06:30:03;95872.38;;;20.99;56.82
48216;BME280;34005;48.844;10.098;2023-07-24T06:32:41;95873.44;;;21.09;56.68
48216;BME280;34005;48.844;10.098;2023-07-24T06:35:10;95882.44;;;21.18;56.76
48216;BME280;34005;48.844;10.098;2023-07-24T06:37:40;95879.25;;;21.26;56.71
48216;BME280;34005;48.844;10.098;2023-07-24T06:40:08;95882.19;;;21.30;56.69
48216;BME280;34005;48.844;10.098;2023-07-24T06:42:37;95879.78;;;21.33;56.65
48216;BME280;34005;48.844;10.098;2023-07-24T06:45:07;95880.28;;;21.40;56.78
48216;BME280;34005;48.844;10.098;2023-07-24T06:47:35;95875.53;;;21.48;56.83
48216;BME280;34005;48.844;10.098;2023-07-24T06:50:06;95863.03;;;21.53;56.91
48216;BME280;34005;48.844;10.098;2023-07-24T06:52:34;95866.50;;;21.59;56.64
48216;BME280;34005;48.844;10.098;2023-07-24T06:55:05;95853.72;;;21.66;56.53
48216;BME280;34005;48.844;10.098;2023-07-24T06:57:35;95854.00;;;21.70;55.99
48216;BME280;34005;48.844;10.098;2023-07-24T07:00:04;95848.13;;;21.73;55.79
48216;BME280;34005;48.844;10.098;2023-07-24T07:02:32;95845.47;;;21.78;55.48
48216;BME280;34005;48.844;10.098;2023-07-24T07:05:04;95849.97;;;21.83;55.66
48216;BME280;34005;48.844;10.098;2023-07-24T07:07:32;95849.41;;;21.86;55.57
48216;BME280;34005;48.844;10.098;2023-07-24T07:10:00;95844.38;;;21.89;55.35
48216;BME280;34005;48.844;10.098;2023-07-24T07:12:30;95851.25;;;21.95;55.22
48216;BME280;34005;48.844;10.098;2023-07-24T07:14:58;95848.81;;;21.99;55.55
48216;BME280;34005;48.844;10.098;2023-07-24T07:17:26;95835.28;;;22.00;55.54
48216;BME280;34005;48.844;10.098;2023-07-24T07:19:55;95852.25;;;22.05;55.31
48216;BME280;34005;48.844;10.098;2023-07-24T07:22:24;95852.78;;;22.07;55.63
48216;BME280;34005;48.844;10.098;2023-07-24T07:24:54;95859.41;;;22.09;55.68
48216;BME280;34005;48.844;10.098;2023-07-24T07:27:22;95855.66;;;22.10;55.55
48216;BME280;34005;48.844;10.098;2023-07-24T07:29:52;95859.66;;;22.13;55.82
48216;BME280;34005;48.844;10.098;2023-07-24T07:32:20;95878.75;;;22.15;55.84
48216;BME280;34005;48.844;10.098;2023-07-24T07:34:48;95880.88;;;22.18;56.03
48216;BME280;34005;48.844;10.098;2023-07-24T07:37:17;95886.97;;;22.24;56.36
48216;BME280;34005;48.844;10.098;2023-07-24T07:39:45;95880.06;;;22.28;55.81
48216;BME280;34005;48.844;10.098;2023-07-24T07:42:13;95876.09;;;22.30;56.10
48216;BME280;34005;48.844;10.098;2023-07-24T07:44:45;95867.56;;;22.33;56.21
48216;BME280;34005;48.844;10.098;2023-07-24T07:47:17;95872.59;;;22.35;56.26
48216;BME280;34005;48.844;10.098;2023-07-24T07:49:45;95868.84;;;22.36;56.18
48216;BME280;34005;48.844;10.098;2023-07-24T07:52:13;95869.13;;;22.39;56.60
48216;BME280;34005;48.844;10.098;2023-07-24T07:54:46;95861.38;;;22.43;56.60
48216;BME280;34005;48.844;10.098;2023-07-24T07:57:14;95868.03;;;22.46;56.89
48216;BME280;34005;48.844;10.098;2023-07-24T07:59:43;95885.28;;;22.48;56.81
48216;BME280;34005;48.844;10.098;2023-07-24T08:02:13;95896.13;;;22.52;56.87
48216;BME280;34005;48.844;10.098;2023-07-24T08:04:43;95889.19;;;22.56;57.37
48216;BME280;34005;48.844;10.098;2023-07-24T08:07:11;95891.03;;;22.60;56.95
48216;BME280;34005;48.844;10.098;2023-07-24T08:09:39;95888.34;;;22.66;57.13
48216;BME280;34005;48.844;10.098;2023-07-24T08:12:08;95899.22;;;22.69;56.83
48216;BME280;34005;48.844;10.098;2023-07-24T08:14:36;95905.31;;;22.75;56.69
48216;BME280;34005;48.844;10.098;2023-07-24T08:17:04;95898.38;;;22.79;56.99
48216;BME280;34005;48.844;10.098;2023-07-24T08:19:33;95898.31;;;22.84;56.68
48216;BME280;34005;48.844;10.098;2023-07-24T08:22:03;95902.03;;;22.88;56.35
48216;BME280;34005;48.844;10.098;2023-07-24T08:24:33;95905.19;;;22.90;56.47
48216;BME280;34005;48.844;10.098;2023-07-24T08:27:02;95907.03;;;22.95;56.04
48216;BME280;34005;48.844;10.098;2023-07-24T08:29:31;95907.28;;;22.98;55.78
48216;BME280;34005;48.844;10.098;2023-07-24T08:32:00;95897.69;;;23.02;55.35
48216;BME280;34005;48.844;10.098;2023-07-24T08:34:28;95897.66;;;23.08;55.29
48216;BME280;34005;48.844;10.098;2023-07-24T08:36:56;95894.41;;;23.16;55.21
48216;BME280;34005;48.844;10.098;2023-07-24T08:39:26;95898.09;;;23.20;54.75
48216;BME280;34005;48.844;10.098;2023-07-24T08:41:54;95880.97;;;23.26;54.72
48216;BME280;34005;48.844;10.098;2023-07-24T08:44:25;95880.38;;;23.34;54.54
48216;BME280;34005;48.844;10.098;2023-07-24T08:46:58;95868.03;;;23.43;54.00
48216;BME280;34005;48.844;10.098;2023-07-24T08:49:29;95859.44;;;23.52;54.08
48216;BME280;34005;48.844;10.098;2023-07-24T08:51:58;95863.38;;;23.59;53.69
48216;BME280;34005;48.844;10.098;2023-07-24T08:54:31;95862.47;;;23.69;52.76
48216;BME280;34005;48.844;10.098;2023-07-24T08:57:06;95854.91;;;23.81;52.25
48216;BME280;34005;48.844;10.098;2023-07-24T08:59:34;95861.13;;;23.96;51.72
48216;BME280;34005;48.844;10.098;2023-07-24T09:02:02;95853.44;;;24.13;50.87
48216;BME280;34005;48.844;10.098;2023-07-24T09:04:32;95856.22;;;24.27;50.07
48216;BME280;34005;48.844;10.098;2023-07-24T09:07:00;95861.59;;;24.41;49.63
48216;BME280;34005;48.844;10.098;2023-07-24T09:09:30;95871.91;;;24.47;48.96
48216;BME280;34005;48.844;10.098;2023-07-24T09:11:58;95869.97;;;24.53;48.46
48216;BME280;34005;48.844;10.098;2023-07-24T09:14:28;95882.63;;;24.66;48.75
48216;BME280;34005;48.844;10.098;2023-07-24T09:17:05;95873.06;;;24.79;47.85
48216;BME280;34005;48.844;10.098;2023-07-24T09:19:34;95868.16;;;24.86;48.25
48216;BME280;34005;48.844;10.098;2023-07-24T09:22:09;95859.28;;;24.91;47.90
48216;BME280;34005;48.844;10.098;2023-07-24T09:24:49;95862.97;;;24.95;48.08
48216;BME280;34005;48.844;10.098;2023-07-24T09:27:17;95873.81;;;24.99;48.20
48216;BME280;34005;48.844;10.098;2023-07-24T09:29:45;95864.44;;;25.01;48.37
48216;BME280;34005;48.844;10.098;2023-07-24T09:32:20;95856.94;;;25.03;48.08
48216;BME280;34005;48.844;10.098;2023-07-24T09:34:49;95846.88;;;25.00;48.38
48216;BME280;34005;48.844;10.098;2023-07-24T09:37:25;95840.34;;;24.93;48.16
48216;BME280;34005;48.844;10.098;2023-07-24T09:39:54;95851.84;;;24.88;48.64
48216;BME280;34005;48.844;10.098;2023-07-24T09:42:29;95867.94;;;24.83;48.37
48216;BME280;34005;48.844;10.098;2023-07-24T09:44:57;95847.25;;;24.75;48.57
48216;BME280;34005;48.844;10.098;2023-07-24T09:47:25;95838.84;;;24.67;49.18
48216;BME280;34005;48.844;10.098;2023-07-24T09:50:13;95855.50;;;24.59;49.74
48216;BME280;34005;48.844;10.098;2023-07-24T09:52:41;95869.19;;;24.53;49.92
48216;BME280;34005;48.844;10.098;2023-07-24T09:55:12;95848.97;;;24.46;50.02
48216;BME280;34005;48.844;10.098;2023-07-24T09:57:43;95842.72;;;24.37;50.08
48216;BME280;34005;48.844;10.098;2023-07-24T10:00:12;95842.53;;;24.34;50.65
48216;BME280;34005;48.844;10.098;2023-07-24T10:02:41;95835.69;;;24.27;51.29
48216;BME280;34005;48.844;10.098;2023-07-24T10:05:09;95845.31;;;24.23;51.48
48216;BME280;34005;48.844;10.098;2023-07-24T10:07:38;95850.94;;;24.22;51.48
48216;BME280;34005;48.844;10.098;2023-07-24T10:10:07;95855.53;;;24.16;50.71
48216;BME280;34005;48.844;10.098;2023-07-24T10:12:37;95859.63;;;24.09;51.48
48216;BME280;34005;48.844;10.098;2023-07-24T10:15:06;95866.09;;;24.02;52.30
48216;BME280;34005;48.844;10.098;2023-07-24T10:17:35;95881.88;;;23.99;52.18
48216;BME280;34005;48.844;10.098;2023-07-24T10:20:07;95883.22;;;23.96;52.08
48216;BME280;34005;48.844;10.098;2023-07-24T10:22:36;95890.47;;;23.91;51.41
48216;BME280;34005;48.844;10.098;2023-07-24T10:25:10;95901.75;;;23.82;51.67
48216;BME280;34005;48.844;10.098;2023-07-24T10:27:43;95903.44;;;23.73;52.08
48216;BME280;34005;48.844;10.098;2023-07-24T10:30:15;95910.16;;;23.65;52.00
48216;BME280;34005;48.844;10.098;2023-07-24T10:33:08;95904.66;;;23.57;52.22
48216;BME280;34005;48.844;10.098;2023-07-24T10:35:41;95920.16;;;23.50;52.18
48216;BME280;34005;48.844;10.098;2023-07-24T10:38:12;95919.97;;;23.41;52.59
48216;BME280;34005;48.844;10.098;2023-07-24T10:40:43;95920.88;;;23.31;52.77
48216;BME280;34005;48.844;10.098;2023-07-24T10:43:19;95914.28;;;23.23;53.24
48216;BME280;34005;48.844;10.098;2023-07-24T10:45:48;95917.78;;;23.19;53.67
48216;BME280;34005;48.844;10.098;2023-07-24T10:48:18;95923.09;;;23.19;53.28
48216;BME280;34005;48.844;10.098;2023-07-24T10:50:48;95914.84;;;23.20;53.07
48216;BME280;34005;48.844;10.098;2023-07-24T10:53:21;95914.84;;;23.20;53.18
48216;BME280;34005;48.844;10.098;2023-07-24T10:55:51;95923.88;;;23.19;53.28
48216;BME280;34005;48.844;10.098;2023-07-24T10:58:24;95925.75;;;23.19;53.26
48216;BME280;34005;48.844;10.098;2023-07-24T11:00:52;95912.19;;;23.15;52.74
48216;BME280;34005;48.844;10.098;2023-07-24T11:03:23;95914.59;;;23.17;53.17
48216;BME280;34005;48.844;10.098;2023-07-24T11:05:52;95910.06;;;23.17;53.31
48216;BME280;34005;48.844;10.098;2023-07-24T11:08:20;95931.06;;;23.19;53.46
48216;BME280;34005;48.844;10.098;2023-07-24T11:10:50;95941.44;;;23.20;53.59
48216;BME280;34005;48.844;10.098;2023-07-24T11:13:21;95947.56;;;23.21;54.12
48216;BME280;34005;48.844;10.098;2023-07-24T11:15:50;95944.09;;;23.20;54.33
48216;BME280;34005;48.844;10.098;2023-07-24T11:18:19;95966.22;;;23.16;54.45
48216;BME280;34005;48.844;10.098;2023-07-24T11:20:50;95974.00;;;23.07;55.49
48216;BME280;34005;48.844;10.098;2023-07-24T11:23:18;95964.75;;;22.94;55.76
48216;BME280;34005;48.844;10.098;2023-07-24T11:25:47;95961.09;;;22.85;56.75
48216;BME280;34005;48.844;10.098;2023-07-24T11:28:15;95964.31;;;22.77;57.48
48216;BME280;34005;48.844;10.098;2023-07-24T11:30:45;95962.50;;;22.72;57.82
48216;BME280;34005;48.844;10.098;2023-07-24T11:33:15;95967.53;;;22.69;58.21
48216;BME280;34005;48.844;10.098;2023-07-24T11:35:45;95969.94;;;22.65;58.79
48216;BME280;34005;48.844;10.098;2023-07-24T11:38:14;95963.63;;;22.61;59.29
48216;BME280;34005;48.844;10.098;2023-07-24T11:40:43;95962.03;;;22.55;60.39
48216;BME280;34005;48.844;10.098;2023-07-24T11:43:16;95967.66;;;22.48;60.80
48216;BME280;34005;48.844;10.098;2023-07-24T11:45:46;95963.44;;;22.42;61.76
48216;BME280;34005;48.844;10.098;2023-07-24T11:48:15;95951.22;;;22.36;61.76
48216;BME280;34005;48.844;10.098;2023-07-24T11:50:45;95944.91;;;22.27;62.23
48216;BME280;34005;48.844;10.098;2023-07-24T11:53:20;95932.16;;;22.13;64.05
48216;BME280;34005;48.844;10.098;2023-07-24T11:55:50;95912.78;;;22.08;64.05
48216;BME280;34005;48.844;10.098;2023-07-24T11:58:18;95897.94;;;22.01;63.78
48216;BME280;34005;48.844;10.098;2023-07-24T12:00:49;95903.53;;;22.00;63.89
48216;BME280;34005;48.844;10.098;2023-07-24T12:03:20;95894.75;;;22.05;63.97
48216;BME280;34005;48.844;10.098;2023-07-24T12:05:49;95894.97;;;22.08;63.53
48216;BME280;34005;48.844;10.098;2023-07-24T12:08:19;95886.72;;;22.15;63.73
48216;BME280;34005;48.844;10.098;2023-07-24T12:10:49;95858.84;;;22.17;63.53
48216;BME280;34005;48.844;10.098;2023-07-24T12:13:17;95840.50;;;22.16;63.07
48216;BME280;34005;48.844;10.098;2023-07-24T12:15:49;95833.34;;;22.16;63.55
48216;BME280;34005;48.844;10.098;2023-07-24T12:18:17;95817.13;;;22.18;62.52
48216;BME280;34005;48.844;10.098;2023-07-24T12:20:45;95803.59;;;22.19;62.82
48216;BME280;34005;48.844;10.098;2023-07-24T12:23:14;95794.00;;;22.29;63.28
48216;BME280;34005;48.844;10.098;2023-07-24T12:25:42;95779.03;;;22.38;63.08
48216;BME280;34005;48.844;10.098;2023-07-24T12:28:10;95768.28;;;22.53;62.12
48216;BME280;34005;48.844;10.098;2023-07-24T12:30:39;95781.47;;;22.69;62.40
48216;BME280;34005;48.844;10.098;2023-07-24T12:33:08;95787.16;;;22.86;61.42
48216;BME280;34005;48.844;10.098;2023-07-24T12:35:36;95799.28;;;22.97;60.72
48216;BME280;34005;48.844;10.098;2023-07-24T12:38:04;95812.00;;;23.06;59.96
48216;BME280;34005;48.844;10.098;2023-07-24T12:40:32;95824.47;;;23.10;59.89
48216;BME280;34005;48.844;10.098;2023-07-24T12:43:00;95818.31;;;23.15;60.38
48216;BME280;34005;48.844;10.098;2023-07-24T12:45:28;95818.28;;;23.20;60.02
48216;BME280;34005;48.844;10.098;2023-07-24T12:47:56;95819.28;;;23.24;60.21
48216;BME280;34005;48.844;10.098;2023-07-24T12:50:26;95830.94;;;23.28;57.77
48216;BME280;34005;48.844;10.098;2023-07-24T12:52:53;95836.00;;;23.30;58.05
48216;BME280;34005;48.844;10.098;2023-07-24T12:55:22;95830.59;;;23.35;57.24
48216;BME280;34005;48.844;10.098;2023-07-24T12:57:49;95821.50;;;23.41;57.33
48216;BME280;34005;48.844;10.098;2023-07-24T13:00:17;95813.69;;;23.50;56.77
48216;BME280;34005;48.844;10.098;2023-07-24T13:02:45;95810.94;;;23.60;56.65
48216;BME280;34005;48.844;10.098;2023-07-24T13:05:13;95809.50;;;23.68;56.11
48216;BME280;34005;48.844;10.098;2023-07-24T13:07:42;95804.13;;;23.73;56.56
48216;BME280;34005;48.844;10.098;2023-07-24T13:10:12;95823.28;;;23.75;56.58
48216;BME280;34005;48.844;10.098;2023-07-24T13:12:40;95809.69;;;23.76;56.24
48216;BME280;34005;48.844;10.098;2023-07-24T13:15:08;95810.66;;;23.85;55.85
48216;BME280;34005;48.844;10.098;2023-07-24T13:17:37;95808.44;;;23.93;55.49
48216;BME280;34005;48.844;10.098;2023-07-24T13:20:06;95793.66;;;24.00;55.13
48216;BME280;34005;48.844;10.098;2023-07-24T13:22:34;95796.47;;;24.09;54.41
48216;BME280;34005;48.844;10.098;2023-07-24T13:25:04;95792.38;;;24.17;53.10
48216;BME280;34005;48.844;10.098;2023-07-24T13:27:33;95785.69;;;24.19;51.70
48216;BME280;34005;48.844;10.098;2023-07-24T13:30:00;95786.69;;;24.23;50.74
48216;BME280;34005;48.844;10.098;2023-07-24T13:32:28;95777.81;;;24.28;49.88
48216;BME280;34005;48.844;10.098;2023-07-24T13:34:56;95774.88;;;24.30;49.63
48216;BME280;34005;48.844;10.098;2023-07-24T13:37:25;95769.84;;;24.28;49.77
48216;BME280;34005;48.844;10.098;2023-07-24T13:39:53;95763.13;;;24.31;50.00
48216;BME280;34005;48.844;10.098;2023-07-24T13:42:22;95756.13;;;24.35;50.15
48216;BME280;34005;48.844;10.098;2023-07-24T13:44:50;95768.38;;;24.36;49.73
48216;BME280;34005;48.844;10.098;2023-07-24T13:47:18;95772.34;;;24.38;50.09
48216;BME280;34005;48.844;10.098;2023-07-24T13:49:47;95779.97;;;24.45;50.14
48216;BME280;34005;48.844;10.098;2023-07-24T13:52:15;95766.59;;;24.50;48.63
48216;BME280;34005;48.844;10.098;2023-07-24T13:54:43;95768.19;;;24.51;47.85
48216;BME280;34005;48.844;10.098;2023-07-24T13:57:12;95759.09;;;24.52;47.15
48216;BME280;34005;48.844;10.098;2023-07-24T13:59:41;95754.25;;;24.54;47.39
48216;BME280;34005;48.844;10.098;2023-07-24T14:02:09;95730.00;;;24.56;47.54
48216;BME280;34005;48.844;10.098;2023-07-24T14:04:39;95736.09;;;24.56;47.31
48216;BME280;34005;48.844;10.098;2023-07-24T14:07:07;95731.34;;;24.53;47.52
48216;BME280;34005;48.844;10.098;2023-07-24T14:09:34;95729.00;;;24.52;47.27
48216;BME280;34005;48.844;10.098;2023-07-24T14:12:02;95726.59;;;24.50;47.76
48216;BME280;34005;48.844;10.098;2023-07-24T14:14:31;95714.38;;;24.49;47.68
48216;BME280;34005;48.844;10.098;2023-07-24T14:17:00;95704.78;;;24.48;47.89
48216;BME280;34005;48.844;10.098;2023-07-24T14:19:27;95713.03;;;24.46;47.50
48216;BME280;34005;48.844;10.098;2023-07-24T14:21:55;95700.78;;;24.45;47.61
48216;BME280;34005;48.844;10.098;2023-07-24T14:24:23;95701.59;;;24.46;47.76
48216;BME280;34005;48.844;10.098;2023-07-24T14:26:50;95690.63;;;24.47;47.69
48216;BME280;34005;48.844;10.098;2023-07-24T14:29:18;95708.22;;;24.49;47.60
48216;BME280;34005;48.844;10.098;2023-07-24T14:31:46;95702.91;;;24.49;48.01
48216;BME280;34005;48.844;10.098;2023-07-24T14:34:15;95709.03;;;24.49;47.98
48216;BME280;34005;48.844;10.098;2023-07-24T14:36:42;95704.25;;;24.46;47.99
48216;BME280;34005;48.844;10.098;2023-07-24T14:39:10;95699.50;;;24.43;48.33
48216;BME280;34005;48.844;10.098;2023-07-24T14:41:38;95703.44;;;24.32;48.95
48216;BME280;34005;48.844;10.098;2023-07-24T14:44:06;95708.13;;;24.21;50.36
48216;BME280;34005;48.844;10.098;2023-07-24T14:46:33;95702.16;;;24.10;51.56
48216;BME280;34005;48.844;10.098;2023-07-24T14:49:01;95701.72;;;24.03;53.37
48216;BME280;34005;48.844;10.098;2023-07-24T14:51:30;95691.66;;;24.00;53.98
48216;BME280;34005;48.844;10.098;2023-07-24T14:53:58;95684.53;;;23.95;54.94
48216;BME280;34005;48.844;10.098;2023-07-24T14:56:26;95683.28;;;23.88;55.58
48216;BME280;34005;48.844;10.098;2023-07-24T14:59:05;95686.13;;;23.77;55.94
48216;BME280;34005;48.844;10.098;2023-07-24T15:01:33;95683.34;;;23.63;56.06
48216;BME280;34005;48.844;10.098;2023-07-24T15:04:01;95685.06;;;23.54;56.77
48216;BME280;34005;48.844;10.098;2023-07-24T15:06:31;95684.88;;;23.51;56.74
48216;BME280;34005;48.844;10.098;2023-07-24T15:08:59;95684.88;;;23.51;57.18
48216;BME280;34005;48.844;10.098;2023-07-24T15:11:27;95693.91;;;23.50;57.17
48216;BME280;34005;48.844;10.098;2023-07-24T15:13:55;95690.31;;;23.40;57.71
48216;BME280;34005;48.844;10.098;2023-07-24T15:16:23;95695.19;;;23.33;58.22
48216;BME280;34005;48.844;10.098;2023-07-24T15:18:51;95685.09;;;23.30;58.27
48216;BME280;34005;48.844;10.098;2023-07-24T15:21:19;95685.09;;;23.30;58.49
48216;BME280;34005;48.844;10.098;2023-07-24T15:23:48;95694.19;;;23.29;58.60
48216;BME280;34005;48.844;10.098;2023-07-24T15:35:24;95710.19;;;23.24;57.82
48216;BME280;34005;48.844;10.098;2023-07-24T15:48:34;95723.00;;;22.93;58.72
48216;BME280;34005;48.844;10.098;2023-07-24T15:51:28;95708.16;;;22.87;58.88
48216;BME280;34005;48.844;10.098;2023-07-24T16:09:26;95717.38;;;22.70;58.07
48216;BME280;34005;48.844;10.098;2023-07-24T16:12:29;95703.84;;;22.67;57.62
48216;BME280;34005;48.844;10.098;2023-07-24T16:15:20;95684.72;;;22.65;57.58
48216;BME280;34005;48.844;10.098;2023-07-24T16:17:54;95696.97;;;22.66;58.49
48216;BME280;34005;48.844;10.098;2023-07-24T16:20:27;95705.47;;;22.62;59.18
48216;BME280;34005;48.844;10.098;2023-07-24T16:22:56;95695.47;;;22.54;58.69
48216;BME280;34005;48.844;10.098;2023-07-24T16:28:49;95709.91;;;22.43;59.34
48216;BME280;34005;48.844;10.098;2023-07-24T16:31:18;95700.63;;;22.40;58.80
48216;BME280;34005;48.844;10.098;2023-07-24T16:34:00;95695.63;;;22.34;60.07
48216;BME280;34005;48.844;10.098;2023-07-24T16:36:58;95688.44;;;22.34;60.60
48216;BME280;34005;48.844;10.098;2023-07-24T16:40:07;95699.59;;;22.36;60.36
48216;BME280;34005;48.844;10.098;2023-07-24T16:42:48;95688.75;;;22.33;60.30
48216;BME280;34005;48.844;10.098;2023-07-24T16:45:23;95683.97;;;22.30;61.05
48216;BME280;34005;48.844;10.098;2023-07-24T16:48:01;95684.78;;;22.30;61.24
48216;BME280;34005;48.844;10.098;2023-07-24T16:50:29;95690.09;;;22.30;60.76
48216;BME280;34005;48.844;10.098;2023-07-24T16:52:58;95691.16;;;22.29;60.53
48216;BME280;34005;48.844;10.098;2023-07-24T16:55:25;95698.63;;;22.27;60.69
48216;BME280;34005;48.844;10.098;2023-07-24T16:57:56;95703.09;;;22.32;60.67
48216;BME280;34005;48.844;10.098;2023-07-24T17:00:24;95698.53;;;22.37;60.47
48216;BME280;34005;48.844;10.098;2023-07-24T17:02:52;95690.25;;;22.44;60.00
48216;BME280;34005;48.844;10.098;2023-07-24T17:05:20;95674.75;;;22.51;59.42
48216;BME280;34005;48.844;10.098;2023-07-24T17:07:47;95670.47;;;22.55;59.63
48216;BME280;34005;48.844;10.098;2023-07-24T17:10:15;95657.13;;;22.60;59.93
48216;BME280;34005;48.844;10.098;2023-07-24T17:12:43;95655.50;;;22.65;59.60
48216;BME280;34005;48.844;10.098;2023-07-24T17:15:12;95663.19;;;22.66;59.43
48216;BME280;34005;48.844;10.098;2023-07-24T17:17:41;95665.84;;;22.66;59.95
48216;BME280;34005;48.844;10.098;2023-07-24T17:20:10;95674.09;;;22.65;59.74
48216;BME280;34005;48.844;10.098;2023-07-24T17:22:37;95667.47;;;22.62;59.41
48216;BME280;34005;48.844;10.098;2023-07-24T17:25:06;95664.56;;;22.63;60.06
48216;BME280;34005;48.844;10.098;2023-07-24T17:27:33;95664.56;;;22.63;60.47
48216;BME280;34005;48.844;10.098;2023-07-24T17:30:04;95670.13;;;22.62;60.65